x

Fripp Nearshore (frp 2) (41033) Weather Station

12:00am - Thu 2nd Jul 2015 All times are EDT. -4 hours from GMT.

  • Wind
    16mph, 18mph gusts
  • Air Temp 82°f
  • Sea Pressure 1017.2mb
  • Fripp Nearshore (frp 2)
  • Fripp Nearshore (frp 2)

More Historic Weather Station data

Upgrade to MSW Pro to gain access to the past 30 days of data for over 8000 Wavebouys and Weather Stations around the globe.

Join Pro

Comparision Forecast

View Surf forecast
   
Thu 07/02 12:00am 16 18 mph 1017.2mb 82f
Wed 07/01 11:00pm 4 7 mph 1017mb 81f
10:00pm 7 9 mph 1016.3mb 83f
9:00pm 7
mph
1015.8mb 82f
8:00pm 9 11 mph 1015.7mb 82f
7:00pm 11 16 mph 1015.3mb 83f
6:00pm 11 13 mph 1015.2mb 84f
5:00pm 13 16 mph 1015.3mb 86f
4:00pm 13 16 mph 1015.9mb 86f
3:00pm 13 16 mph 1016.3mb 84f
2:00pm 16 18 mph 1016.7mb 83f
1:00pm 13 18 mph 1017.3mb 82f
12:00pm 18 20 mph 1017.3mb 80f
11:00am 16 18 mph 1017.2mb 80f
9:00am 16 18 mph 1017.1mb 78f
8:00am 18 20 mph 1016.7mb 77f
7:00am 16 18 mph 1016.5mb 77f
6:00am 18 20 mph 1016.2mb 77f
5:00am 18 20 mph 1016.1mb 78f
3:00am 18 20 mph 1015.9mb 79f
2:00am 20 22 mph 1016mb 79f
1:00am 18 20 mph 1016.1mb 80f
12:00am 18 22 mph 1016.1mb 80f
Tue 06/30 11:00pm 11 13 mph 1016.1mb 80f
10:00pm 11 13 mph 1016mb 79f
9:00pm 11 16 mph 1015.2mb 80f
8:00pm 9 11 mph 1014.4mb 80f
5:00pm 20 25 mph 1014.9mb 82f
4:00pm 20 22 mph 1014.8mb 82f
3:00pm 18 22 mph 1015mb 82f
2:00pm 13 16 mph 1015.7mb 82f
1:00pm 16 18 mph 1016.7mb 83f
12:00pm 9 11 mph 1017.1mb 84f
11:00am 9 11 mph 1017.2mb 84f
10:00am 11 13 mph 1016.7mb 82f
9:00am 16 18 mph 1017mb 82f
8:00am 18 20 mph 1016.2mb 81f
7:00am 16 18 mph 1016.3mb 80f
6:00am 11 16 mph 1015.7mb 81f
5:00am 16 20 mph 1015.1mb 81f
4:00am 18 20 mph 1015.3mb 81f
3:00am 16 20 mph 1015.6mb 82f
12:00am 18 20 mph 1015.8mb 81f
Mon 06/29 11:00pm 18 20 mph 1016mb 81f
10:00pm 18 20 mph 1015.6mb 82f
9:00pm 18 20 mph 1015.1mb 82f
8:00pm 18 20 mph 1014.7mb 82f
6:00pm 13 18 mph 1014.4mb 83f
5:00pm 16 18 mph 1014.2mb 83f
4:00pm 16 18 mph 1014.5mb 82f
3:00pm 16 18 mph 1015.2mb 82f
2:00pm 11
mph
1015.7mb 83f
1:00pm 11 13 mph 1015.9mb 82f
12:00pm 9
mph
1016.1mb 83f
11:00am 9 11 mph 1016.2mb 81f
10:00am 9
mph
1016.1mb 80f
9:00am 11 13 mph 1015.8mb 79f
8:00am 9 11 mph 1015.2mb 78f
7:00am 13 16 mph 1014.7mb 77f
6:00am 13 16 mph 1014.1mb 77f
5:00am 13 16 mph 1013.7mb 77f
4:00am 11 13 mph 1013.6mb 77f
3:00am 16 18 mph 1013.8mb 77f
2:00am 18 20 mph 1013.9mb 79f
1:00am 16 20 mph 1014.2mb 79f
12:00am 18 22 mph 1014.5mb 80f
Sun 06/28 11:00pm 18 22 mph 1014.4mb 80f
9:00pm 22 27 mph 1013.5mb 80f
8:00pm 16 20 mph 1013.4mb 81f
7:00pm 11 13 mph 1013.3mb 80f
5:00pm 29 31 mph 1011.7mb 79f
4:00pm 18 22 mph 1012.1mb 82f
3:00pm 13 16 mph 1012.3mb 85f
2:00pm 11 16 mph 1012.9mb 84f
1:00pm 13 16 mph 1013.7mb 84f
12:00pm 9 11 mph 1013.7mb 83f
11:00am 13 16 mph 1013.8mb 82f
10:00am 13 16 mph 1013.8mb 81f
9:00am 16 18 mph 1013.5mb 80f
8:00am 18 20 mph 1013.3mb 80f
7:00am 20 22 mph 1012.7mb 79f